createdAt,value
2023-05-05T00:00:15.615Z,6.13
2023-05-05T00:02:43.734Z,9.95
2023-05-05T00:05:11.613Z,8.63
2023-05-05T00:07:40.785Z,8.50
2023-05-05T00:10:09.208Z,10.68
2023-05-05T00:12:37.800Z,12.27
2023-05-05T00:15:06.635Z,14.05
2023-05-05T00:17:34.658Z,11.70
2023-05-05T00:20:02.509Z,10.77
2023-05-05T00:22:30.399Z,11.30
2023-05-05T00:24:59.541Z,9.80
2023-05-05T00:27:27.337Z,9.43
2023-05-05T00:29:55.161Z,10.18
2023-05-05T00:32:22.962Z,14.60
2023-05-05T00:34:50.802Z,10.63
2023-05-05T00:37:18.621Z,10.32
2023-05-05T00:39:46.431Z,8.25
2023-05-05T00:42:15.749Z,10.20
2023-05-05T00:44:44.806Z,8.45
2023-05-05T00:47:13.906Z,10.13
2023-05-05T00:49:41.803Z,11.70
2023-05-05T00:52:10.621Z,11.57
2023-05-05T00:54:39.844Z,10.02
2023-05-05T00:57:07.829Z,7.70
2023-05-05T00:59:37.880Z,9.45
2023-05-05T01:02:05.989Z,17.17
2023-05-05T01:04:33.832Z,7.90
2023-05-05T01:07:14.764Z,10.30
2023-05-05T01:10:07.287Z,8.30
2023-05-05T01:12:47.553Z,9.63
2023-05-05T01:15:26.421Z,8.70
2023-05-05T01:18:01.752Z,8.63
2023-05-05T01:20:37.216Z,7.93
2023-05-05T01:23:08.437Z,11.90
2023-05-05T01:26:10.721Z,9.02
2023-05-05T01:29:02.365Z,7.07
2023-05-05T01:31:51.772Z,10.75
2023-05-05T01:34:24.330Z,6.95
2023-05-05T01:36:59.344Z,8.15
2023-05-05T01:39:32.440Z,12.35
2023-05-05T01:42:06.737Z,14.45
2023-05-05T01:44:37.470Z,12.40
2023-05-05T01:47:07.710Z,11.90
2023-05-05T01:49:38.244Z,10.13
2023-05-05T01:52:07.836Z,10.30
2023-05-05T01:54:36.079Z,8.07
2023-05-05T01:57:05.850Z,9.23
2023-05-05T01:59:34.931Z,10.48
2023-05-05T02:02:04.316Z,13.00
2023-05-05T02:04:35.285Z,13.20
2023-05-05T02:07:04.401Z,12.02
2023-05-05T02:09:33.938Z,13.07
2023-05-05T02:12:03.096Z,10.55
2023-05-05T02:14:32.153Z,16.65
2023-05-05T02:17:01.397Z,13.85
2023-05-05T02:19:31.358Z,9.32
2023-05-05T02:22:01.139Z,12.38
2023-05-05T02:24:30.104Z,13.30
2023-05-05T02:27:03.728Z,13.85
2023-05-05T02:29:35.519Z,13.88
2023-05-05T02:32:06.860Z,11.87
2023-05-05T02:34:37.749Z,10.20
2023-05-05T02:37:13.114Z,17.17
2023-05-05T02:39:51.564Z,11.38
2023-05-05T02:42:23.337Z,9.02
2023-05-05T02:44:56.401Z,10.70
2023-05-05T02:47:29.047Z,15.45
2023-05-05T02:49:57.376Z,13.05
2023-05-05T02:52:26.801Z,11.80
2023-05-05T02:54:54.820Z,14.43
2023-05-05T02:57:27.604Z,11.38
2023-05-05T03:00:06.963Z,14.02
2023-05-05T03:02:52.969Z,12.55
2023-05-05T03:05:23.337Z,10.23
2023-05-05T03:07:58.194Z,10.98
2023-05-05T03:10:32.021Z,15.27
2023-05-05T03:13:03.898Z,11.35
2023-05-05T03:15:43.579Z,12.95
2023-05-05T03:18:13.240Z,10.05
2023-05-05T03:20:44.877Z,9.27
2023-05-05T03:23:18.350Z,14.23
2023-05-05T03:25:48.116Z,11.00
2023-05-05T03:28:38.624Z,10.80
2023-05-05T03:31:18.138Z,12.88
2023-05-05T03:33:50.619Z,11.73
2023-05-05T03:36:21.073Z,10.15
2023-05-05T03:38:50.536Z,17.67
2023-05-05T03:41:20.889Z,10.95
2023-05-05T03:43:48.721Z,10.77
2023-05-05T03:46:17.391Z,11.50
2023-05-05T03:48:45.444Z,11.13
2023-05-05T03:51:13.807Z,11.73
2023-05-05T03:53:42.189Z,11.43
2023-05-05T03:56:12.561Z,11.65
2023-05-05T03:58:40.548Z,8.82
2023-05-05T04:01:08.514Z,14.30
2023-05-05T04:03:36.633Z,9.30
2023-05-05T04:06:04.774Z,10.02
2023-05-05T04:08:33.709Z,8.40
2023-05-05T04:11:03.163Z,9.68
2023-05-05T04:13:34.236Z,13.02
2023-05-05T04:16:03.720Z,15.05
2023-05-05T04:18:32.273Z,8.70
2023-05-05T04:21:00.800Z,11.45
2023-05-05T04:23:28.684Z,12.82
2023-05-05T04:25:56.996Z,15.23
2023-05-05T04:28:26.499Z,12.52
2023-05-05T04:30:55.808Z,15.60
2023-05-05T04:33:23.922Z,16.23
2023-05-05T04:35:51.809Z,13.27
2023-05-05T04:38:21.079Z,10.95
2023-05-05T04:40:50.118Z,8.82
2023-05-05T04:43:18.410Z,13.30
2023-05-05T04:45:53.536Z,14.20
2023-05-05T04:48:24.788Z,13.63
2023-05-05T04:50:53.182Z,16.30
2023-05-05T04:53:21.156Z,9.80
2023-05-05T04:55:50.825Z,11.10
2023-05-05T04:58:19.109Z,12.48
2023-05-05T05:00:47.248Z,10.18
2023-05-05T05:03:15.043Z,12.30
2023-05-05T05:05:44.357Z,11.10
2023-05-05T05:08:12.181Z,12.25
2023-05-05T05:10:41.472Z,9.15
2023-05-05T05:13:11.256Z,10.88
2023-05-05T05:15:40.753Z,14.13
2023-05-05T05:18:08.770Z,12.25
2023-05-05T05:20:36.625Z,7.28
2023-05-05T05:23:05.925Z,16.75
2023-05-05T05:25:37.806Z,15.30
2023-05-05T05:28:09.459Z,8.52
2023-05-05T05:30:42.611Z,11.75
2023-05-05T05:33:12.040Z,9.45
2023-05-05T05:35:40.815Z,11.68
2023-05-05T05:38:10.705Z,15.23
2023-05-05T05:40:38.585Z,11.13
2023-05-05T05:43:06.940Z,10.38
2023-05-05T05:45:36.472Z,11.68
2023-05-05T05:48:06.479Z,9.27
2023-05-05T05:53:04.018Z,13.38
2023-05-05T05:55:33.590Z,8.85
2023-05-05T05:58:02.399Z,16.08
2023-05-05T06:00:30.991Z,12.73
2023-05-05T06:03:05.415Z,10.55
2023-05-05T06:05:36.837Z,11.00
2023-05-05T06:08:05.026Z,9.80
2023-05-05T06:10:38.160Z,7.50
2023-05-05T06:13:10.495Z,10.95
2023-05-05T06:15:42.477Z,17.20
2023-05-05T06:18:12.475Z,8.98
2023-05-05T06:20:40.346Z,17.55
2023-05-05T06:23:08.671Z,11.80
2023-05-05T06:25:41.987Z,13.13
2023-05-05T06:28:09.879Z,10.40
2023-05-05T06:30:37.810Z,13.50
2023-05-05T06:33:05.735Z,10.85
2023-05-05T06:35:33.562Z,13.02
2023-05-05T06:38:01.390Z,10.18
2023-05-05T06:40:29.269Z,15.13
2023-05-05T06:42:58.423Z,10.68
2023-05-05T06:45:31.165Z,14.90
2023-05-05T06:47:59.063Z,10.88
2023-05-05T06:50:27.042Z,9.70
2023-05-05T06:52:54.826Z,10.57
2023-05-05T06:55:23.407Z,10.88
2023-05-05T06:57:51.339Z,10.88
2023-05-05T07:00:22.141Z,9.63
2023-05-05T07:02:49.999Z,9.52
2023-05-05T07:05:17.876Z,7.75
2023-05-05T07:07:52.633Z,12.27
2023-05-05T07:10:20.578Z,9.70
2023-05-05T07:12:48.490Z,13.57
2023-05-05T07:15:26.801Z,10.73
2023-05-05T07:17:58.055Z,9.95
2023-05-05T07:20:26.780Z,9.30
2023-05-05T07:22:54.769Z,14.98
2023-05-05T07:25:22.822Z,9.38
2023-05-05T07:27:51.118Z,7.45
2023-05-05T07:30:19.666Z,11.02
2023-05-05T07:32:47.952Z,10.15
2023-05-05T07:35:17.378Z,8.65
2023-05-05T07:37:45.580Z,12.23
2023-05-05T07:40:14.084Z,10.73
2023-05-05T07:42:42.092Z,10.18
2023-05-05T07:45:10.454Z,8.63
2023-05-05T07:47:38.380Z,7.15
2023-05-05T07:50:07.957Z,8.35
2023-05-05T07:52:45.353Z,6.18
2023-05-05T07:55:17.791Z,7.75
2023-05-05T07:57:45.746Z,7.38
2023-05-05T08:00:14.844Z,10.57
2023-05-05T08:02:44.023Z,8.30
2023-05-05T08:05:12.851Z,8.88
2023-05-05T08:07:42.076Z,8.15
2023-05-05T08:10:11.896Z,8.25
2023-05-05T08:12:40.027Z,9.60
2023-05-05T08:15:09.096Z,11.48
2023-05-05T08:17:47.990Z,8.10
2023-05-05T08:20:16.028Z,8.00
2023-05-05T08:22:45.322Z,11.88
2023-05-05T08:25:13.857Z,8.85
2023-05-05T08:27:42.679Z,7.43
2023-05-05T08:30:11.843Z,8.52
2023-05-05T08:32:39.753Z,7.40
2023-05-05T08:35:08.526Z,5.95
2023-05-05T08:37:36.651Z,5.68
2023-05-05T08:40:06.673Z,10.32
2023-05-05T08:42:38.806Z,5.90
2023-05-05T08:45:09.020Z,6.28
2023-05-05T08:47:38.756Z,8.35
2023-05-05T08:50:11.001Z,35.42
2023-05-05T08:52:41.368Z,33.03
2023-05-05T08:55:25.621Z,17.23
2023-05-05T08:57:56.495Z,9.02
2023-05-05T09:00:26.465Z,6.80
2023-05-05T09:02:57.076Z,8.30
2023-05-05T09:05:24.955Z,6.43
2023-05-05T09:07:53.180Z,7.35
2023-05-05T09:10:22.475Z,12.88
2023-05-05T09:12:51.627Z,9.65
2023-05-05T09:15:19.612Z,8.90
2023-05-05T09:17:48.215Z,8.00
2023-05-05T09:20:16.370Z,6.75
2023-05-05T09:22:45.557Z,7.18
2023-05-05T09:25:14.980Z,10.25
2023-05-05T09:27:46.791Z,5.53
2023-05-05T09:30:16.547Z,7.10
2023-05-05T09:32:46.218Z,6.88
2023-05-05T09:35:14.198Z,8.40
2023-05-05T09:37:42.322Z,8.90
2023-05-05T09:40:11.265Z,11.25
2023-05-05T09:42:40.222Z,8.32
2023-05-05T09:45:27.442Z,6.38
2023-05-05T09:47:59.570Z,5.43
2023-05-05T09:50:30.683Z,9.65
2023-05-05T09:53:00.853Z,8.02
2023-05-05T09:55:29.021Z,6.53
2023-05-05T09:57:56.860Z,8.55
2023-05-05T10:00:39.151Z,7.35
2023-05-05T10:03:07.229Z,6.55
2023-05-05T10:05:48.571Z,8.40
2023-05-05T10:08:17.625Z,7.75
2023-05-05T10:10:51.529Z,10.25
2023-05-05T10:13:20.907Z,7.03
2023-05-05T10:15:52.077Z,8.30
2023-05-05T10:18:25.043Z,6.93
2023-05-05T10:20:59.268Z,11.57
2023-05-05T10:23:34.225Z,8.50
2023-05-05T10:26:04.304Z,9.98
2023-05-05T10:28:34.772Z,8.70
2023-05-05T10:31:16.502Z,10.65
2023-05-05T10:33:55.499Z,6.80
2023-05-05T10:36:24.450Z,5.37
2023-05-05T10:38:56.223Z,8.15
2023-05-05T10:41:25.309Z,7.40
2023-05-05T10:43:56.226Z,8.30
2023-05-05T10:46:26.768Z,11.68
2023-05-05T10:49:00.931Z,10.27
2023-05-05T10:51:41.486Z,11.45
2023-05-05T10:54:17.836Z,8.57
2023-05-05T10:56:48.194Z,7.07
2023-05-05T10:59:41.871Z,7.57
2023-05-05T11:02:24.650Z,6.97
2023-05-05T11:05:09.348Z,7.15
2023-05-05T11:07:37.524Z,8.13
2023-05-05T11:10:06.984Z,8.18
2023-05-05T11:13:13.504Z,11.32
2023-05-05T11:15:41.579Z,8.55
2023-05-05T11:18:30.560Z,7.18
2023-05-05T11:21:18.210Z,8.15
2023-05-05T11:23:47.823Z,6.25
2023-05-05T11:26:17.326Z,7.07
2023-05-05T11:29:00.322Z,9.60
2023-05-05T11:31:28.870Z,13.52
2023-05-05T11:34:31.055Z,12.25
2023-05-05T11:37:03.056Z,12.10
2023-05-05T11:39:41.742Z,7.60
2023-05-05T11:42:25.766Z,11.88
2023-05-05T11:44:54.740Z,7.93
2023-05-05T11:47:34.551Z,12.13
2023-05-05T11:50:21.699Z,8.38
2023-05-05T11:52:50.037Z,9.25
2023-05-05T11:55:22.954Z,12.82
2023-05-05T11:57:51.092Z,8.43
2023-05-05T12:00:19.900Z,13.10
2023-05-05T12:02:48.163Z,7.95
2023-05-05T12:05:22.085Z,11.15
2023-05-05T12:07:56.824Z,8.98
2023-05-05T12:10:24.932Z,11.18
2023-05-05T12:12:55.496Z,16.38
2023-05-05T12:15:31.523Z,11.25
2023-05-05T12:18:01.607Z,7.90
2023-05-05T12:20:33.759Z,10.23
2023-05-05T12:23:05.006Z,8.68
2023-05-05T12:25:38.111Z,8.18
2023-05-05T12:28:07.488Z,11.23
2023-05-05T12:30:35.786Z,12.98
2023-05-05T12:33:04.561Z,12.48
2023-05-05T12:35:34.465Z,10.68
2023-05-05T12:38:02.337Z,10.68
2023-05-05T12:40:47.213Z,10.85
2023-05-05T12:43:26.603Z,12.05
2023-05-05T12:46:05.619Z,13.02
2023-05-05T12:48:33.803Z,9.35
2023-05-05T12:51:20.354Z,9.20
2023-05-05T12:53:49.437Z,13.88
2023-05-05T12:56:48.201Z,10.48
2023-05-05T12:59:30.711Z,10.00
2023-05-05T13:01:59.947Z,13.93
2023-05-05T13:04:29.310Z,12.75
2023-05-05T13:07:12.750Z,9.52
2023-05-05T13:09:40.698Z,8.20
2023-05-05T13:12:11.871Z,12.10
2023-05-05T13:14:40.653Z,11.43
2023-05-05T13:17:08.858Z,11.90
2023-05-05T13:19:41.870Z,9.95
2023-05-05T13:22:11.176Z,11.93
2023-05-05T13:24:50.591Z,11.27
2023-05-05T13:27:19.199Z,10.35
2023-05-05T13:29:47.064Z,10.27
2023-05-05T13:32:14.860Z,14.98
2023-05-05T13:34:44.074Z,10.52
2023-05-05T13:37:13.286Z,12.38
2023-05-05T13:39:41.104Z,12.68
2023-05-05T13:42:09.094Z,14.20
2023-05-05T13:44:36.926Z,15.55
2023-05-05T13:47:04.921Z,12.00
2023-05-05T13:49:32.749Z,14.55
2023-05-05T13:52:00.575Z,10.85
2023-05-05T13:54:29.734Z,9.52
2023-05-05T13:56:57.850Z,12.65
2023-05-05T13:59:26.308Z,12.45
2023-05-05T14:01:54.149Z,15.68
2023-05-05T14:04:21.962Z,13.68
2023-05-05T14:06:49.856Z,11.18
2023-05-05T14:09:17.695Z,13.70
2023-05-05T14:11:46.819Z,19.25
2023-05-05T14:14:14.620Z,15.93
2023-05-05T14:16:42.432Z,19.08
2023-05-05T14:19:10.343Z,19.70
2023-05-05T14:21:38.154Z,21.65
2023-05-05T14:24:06.505Z,18.15
2023-05-05T14:26:34.376Z,23.30
2023-05-05T14:29:03.943Z,19.42
2023-05-05T14:31:31.795Z,18.55
2023-05-05T14:33:59.645Z,19.00
2023-05-05T14:36:27.443Z,21.70
2023-05-05T14:38:55.442Z,19.67
2023-05-05T14:41:23.581Z,17.45
2023-05-05T14:43:51.396Z,20.75
2023-05-05T14:46:20.646Z,21.13
2023-05-05T14:48:48.543Z,22.65
2023-05-05T14:51:16.799Z,17.10
2023-05-05T14:53:44.661Z,19.77
2023-05-05T14:56:12.605Z,16.77
2023-05-05T14:58:40.582Z,18.67
2023-05-05T15:01:08.404Z,20.40
2023-05-05T15:03:37.795Z,21.17
2023-05-05T15:06:05.877Z,15.63
2023-05-05T15:08:33.746Z,15.68
2023-05-05T15:11:01.689Z,14.10
2023-05-05T15:13:29.744Z,19.10
2023-05-05T15:15:57.662Z,18.52
2023-05-05T15:18:25.675Z,17.83
2023-05-05T15:20:54.792Z,17.77
2023-05-05T15:23:22.681Z,19.08
2023-05-05T15:25:50.527Z,14.63
2023-05-05T15:28:18.681Z,14.05
2023-05-05T15:30:46.521Z,16.23
2023-05-05T15:33:14.375Z,19.35
2023-05-05T15:35:42.185Z,18.50
2023-05-05T15:38:11.438Z,20.13
2023-05-05T15:40:39.231Z,18.70
2023-05-05T15:43:07.061Z,21.25
2023-05-05T15:45:35.115Z,16.77
2023-05-05T15:48:02.985Z,20.05
2023-05-05T15:50:30.973Z,17.17
2023-05-05T15:52:59.033Z,17.15
2023-05-05T15:55:28.968Z,20.60
2023-05-05T15:57:56.766Z,16.77
2023-05-05T16:00:25.744Z,17.52
2023-05-05T16:02:53.759Z,15.88
2023-05-05T16:05:23.090Z,16.63
2023-05-05T16:07:52.442Z,19.17
2023-05-05T16:10:20.548Z,18.00
2023-05-05T16:12:50.009Z,24.00
2023-05-05T16:15:17.872Z,19.35
2023-05-05T16:17:45.813Z,25.23
2023-05-05T16:20:14.062Z,21.27
2023-05-05T16:22:41.859Z,24.10
2023-05-05T16:25:12.357Z,23.23
2023-05-05T16:27:40.158Z,17.50
2023-05-05T16:30:12.738Z,21.35
2023-05-05T16:32:40.593Z,18.75
2023-05-05T16:35:09.232Z,20.63
2023-05-05T16:37:37.296Z,17.00
2023-05-05T16:40:06.699Z,19.90
2023-05-05T16:42:34.537Z,20.35
2023-05-05T16:45:02.347Z,19.35
2023-05-05T16:47:34.745Z,23.35
2023-05-05T16:52:30.189Z,22.35
2023-05-05T16:54:57.987Z,21.08
2023-05-05T16:57:25.855Z,19.42
2023-05-05T16:59:56.288Z,22.13
2023-05-05T17:02:24.182Z,17.17
2023-05-05T17:04:53.435Z,19.00
2023-05-05T17:07:21.356Z,16.55
2023-05-05T17:09:49.232Z,15.90
2023-05-05T17:12:17.042Z,16.55
2023-05-05T17:14:45.340Z,17.92
2023-05-05T17:17:13.226Z,12.45
2023-05-05T17:19:42.529Z,16.13
2023-05-05T17:22:11.680Z,16.40
2023-05-05T17:24:39.501Z,16.20
2023-05-05T17:27:07.364Z,13.98
2023-05-05T17:29:40.695Z,16.95
2023-05-05T17:32:08.769Z,16.23
2023-05-05T17:34:36.718Z,17.38
2023-05-05T17:37:04.728Z,15.65
2023-05-05T17:39:33.862Z,16.33
2023-05-05T17:42:01.708Z,16.85
2023-05-05T17:44:31.391Z,17.75
2023-05-05T17:46:59.288Z,17.48
2023-05-05T17:49:27.075Z,20.00
2023-05-05T17:51:54.890Z,22.95
2023-05-05T17:54:22.718Z,19.50
2023-05-05T17:56:51.906Z,18.38
2023-05-05T17:59:19.690Z,18.48
2023-05-05T18:01:47.573Z,16.30
2023-05-05T18:04:15.880Z,15.00
2023-05-05T18:06:43.674Z,15.55
2023-05-05T18:09:12.029Z,19.23
2023-05-05T18:11:39.851Z,21.83
2023-05-05T18:14:10.677Z,15.10
2023-05-05T18:16:38.491Z,16.08
2023-05-05T18:19:06.354Z,18.70
2023-05-05T18:21:34.191Z,19.17
2023-05-05T18:24:15.788Z,17.50
2023-05-05T18:26:48.927Z,18.55
2023-05-05T18:29:18.239Z,19.38
2023-05-05T18:31:50.848Z,17.10
2023-05-05T18:34:19.362Z,18.67
2023-05-05T18:36:47.746Z,15.13
2023-05-05T18:39:15.683Z,13.95
2023-05-05T18:41:43.622Z,16.02
2023-05-05T18:44:11.625Z,12.80
2023-05-05T18:46:41.272Z,12.00
2023-05-05T18:49:09.123Z,11.80
2023-05-05T18:51:37.223Z,12.40
2023-05-05T18:54:05.404Z,14.82
2023-05-05T18:56:33.378Z,13.85
2023-05-05T18:59:01.164Z,13.43
2023-05-05T19:01:29.040Z,15.55
2023-05-05T19:03:58.231Z,15.15
2023-05-05T19:06:26.126Z,16.58
2023-05-05T19:08:53.983Z,18.85
2023-05-05T19:11:21.931Z,13.40
2023-05-05T19:13:49.770Z,16.65
2023-05-05T19:16:17.956Z,18.63
2023-05-05T19:18:45.937Z,17.45
2023-05-05T19:21:15.170Z,15.52
2023-05-05T19:23:42.989Z,16.85
2023-05-05T19:26:11.536Z,14.90
2023-05-05T19:28:39.493Z,17.65
2023-05-05T19:31:07.346Z,18.77
2023-05-05T19:33:36.469Z,13.63
2023-05-05T19:36:04.575Z,13.02
2023-05-05T19:38:33.761Z,14.27
2023-05-05T19:41:01.598Z,22.08
2023-05-05T19:43:29.484Z,21.77
2023-05-05T19:45:57.320Z,16.20
2023-05-05T19:48:25.478Z,15.75
2023-05-05T19:50:53.373Z,17.55
2023-05-05T19:53:21.209Z,13.85
2023-05-05T19:55:50.599Z,14.60
2023-05-05T19:58:18.899Z,19.65
2023-05-05T20:00:46.698Z,16.58
2023-05-05T20:03:14.762Z,14.25
2023-05-05T20:05:42.630Z,19.25
2023-05-05T20:08:10.709Z,17.27
2023-05-05T20:10:38.568Z,17.02
2023-05-05T20:13:07.813Z,21.85
2023-05-05T20:15:35.714Z,15.52
2023-05-05T20:18:03.906Z,14.38
2023-05-05T20:20:31.857Z,15.43
2023-05-05T20:22:59.734Z,14.60
2023-05-05T20:25:27.750Z,11.70
2023-05-05T20:27:55.578Z,16.77
2023-05-05T20:30:24.772Z,17.80
2023-05-05T20:32:53.528Z,20.42
2023-05-05T20:35:21.499Z,20.35
2023-05-05T20:37:49.349Z,12.48
2023-05-05T20:40:17.199Z,11.07
2023-05-05T20:42:45.099Z,9.93
2023-05-05T20:45:13.071Z,15.73
2023-05-05T20:47:42.431Z,14.55
2023-05-05T20:50:11.359Z,13.70
2023-05-05T20:52:39.420Z,19.17
2023-05-05T20:55:07.923Z,20.15
2023-05-05T20:57:35.759Z,11.77
2023-05-05T21:00:04.159Z,11.57
2023-05-05T21:02:32.500Z,14.40
2023-05-05T21:05:03.138Z,18.45
2023-05-05T21:07:33.122Z,12.75
2023-05-05T21:10:01.287Z,10.85
2023-05-05T21:12:29.958Z,9.30
2023-05-05T21:14:58.741Z,10.63
2023-05-05T21:17:26.834Z,16.15
2023-05-05T21:19:54.968Z,14.55
2023-05-05T21:22:24.474Z,16.05
2023-05-05T21:24:52.263Z,20.42
2023-05-05T21:27:20.275Z,13.73
2023-05-05T21:29:48.146Z,16.65
2023-05-05T21:32:15.938Z,10.82
2023-05-05T21:34:43.781Z,14.50
2023-05-05T21:37:12.139Z,12.45
2023-05-05T21:39:41.695Z,9.10
2023-05-05T21:42:09.638Z,10.35
2023-05-05T21:44:37.420Z,13.43
2023-05-05T21:47:06.238Z,14.68
2023-05-05T21:49:34.031Z,9.65
2023-05-05T21:52:01.875Z,12.20
2023-05-05T21:54:30.709Z,10.70
2023-05-05T21:57:00.190Z,11.20
2023-05-05T21:59:28.055Z,15.23
2023-05-05T22:01:56.052Z,13.82
2023-05-05T22:06:36.025Z,9.82
2023-05-05T22:09:03.860Z,11.90
2023-05-05T22:11:31.714Z,10.25
2023-05-05T22:13:59.581Z,10.10
2023-05-05T22:16:27.417Z,11.35
2023-05-05T22:18:55.230Z,9.25
2023-05-05T22:21:23.050Z,11.38
2023-05-05T22:23:52.285Z,9.30
2023-05-05T22:26:20.217Z,10.73
2023-05-05T22:28:48.024Z,10.95
2023-05-05T22:31:15.818Z,9.63
2023-05-05T22:33:43.656Z,13.15
2023-05-05T22:36:11.536Z,11.82
2023-05-05T22:38:39.403Z,15.18
2023-05-05T22:41:08.720Z,17.17
2023-05-05T22:43:37.006Z,13.82
2023-05-05T22:46:04.905Z,12.43
2023-05-05T22:48:32.666Z,15.15
2023-05-05T22:51:00.495Z,13.07
2023-05-05T22:53:28.316Z,9.95
2023-05-05T22:55:58.252Z,13.40
2023-05-05T22:58:27.796Z,12.90
2023-05-05T23:00:55.615Z,12.00
2023-05-05T23:03:23.381Z,10.93
2023-05-05T23:05:51.192Z,9.07
2023-05-05T23:08:20.273Z,11.45
2023-05-05T23:10:48.190Z,9.35
2023-05-05T23:13:16.216Z,12.30
2023-05-05T23:15:45.565Z,11.50
2023-05-05T23:18:13.357Z,12.60
2023-05-05T23:20:41.165Z,11.02
2023-05-05T23:23:08.941Z,14.23
2023-05-05T23:25:36.769Z,13.10
2023-05-05T23:28:04.829Z,13.50
2023-05-05T23:30:32.628Z,16.77
2023-05-05T23:33:01.957Z,12.85
2023-05-05T23:35:29.777Z,12.68
2023-05-05T23:37:57.528Z,12.55
2023-05-05T23:40:25.404Z,13.63
2023-05-05T23:42:53.199Z,14.15
2023-05-05T23:45:20.959Z,17.73
2023-05-05T23:47:48.862Z,15.15
2023-05-05T23:50:18.050Z,13.88
2023-05-05T23:52:45.854Z,11.45
2023-05-05T23:55:14.415Z,11.43
2023-05-05T23:57:42.222Z,13.50
